EIN5PE EGBB-LIPX
Flight info
| Callsign | EIN5PE |
|---|---|
| Flight time | N/A |
| Altitude | 37000 |
| Route | ADMEX Y321 EMKUK UL612 COWLY Q70 BIG UL9 KONAN DCT KOK UL607 FERDI DCT REMBA DCT LIRSU DCT KRH DCT BATUB M738 NATAG DCT LORLO DCT MOVOR/N0395F190 T897 IDREK/N0363F130 T897 ANJAT |
| Aircraft | A319/M-SDE3FGHIRWY/LB1 |
Departure
| Time | 2026-04-28 15:49 |
|---|---|
| Airport | Birmingham Airport (EGBB) |
Arrival
| Time | N/A |
|---|---|
| Airport | Verona Villafranca Valerio Catullo Airport (LIPX) |
| Time | Latitude | Longitude | Altitude | Speed | Heading |
|---|---|---|---|---|---|
| 2026-04-28 15:24 | 52.45527 | -1.73657 | 324 ft | 0 kts | 326° |
| 2026-04-28 15:40 | 52.45526 | -1.73656 | 323 ft | 2 kts | 326° |
| 2026-04-28 15:40 | 52.45506 | -1.73632 | 323 ft | 4 kts | 317° |
| 2026-04-28 15:40 | 52.45488 | -1.73599 | 323 ft | 4 kts | 295° |
| 2026-04-28 15:40 | 52.45485 | -1.73564 | 323 ft | 3 kts | 239° |
| 2026-04-28 15:41 | 52.45489 | -1.73553 | 323 ft | 0 kts | 236° |
| 2026-04-28 15:43 | 52.45488 | -1.73556 | 323 ft | 1 kts | 236° |
| 2026-04-28 15:43 | 52.45464 | -1.73612 | 322 ft | 12 kts | 236° |
| 2026-04-28 15:43 | 52.45401 | -1.73764 | 323 ft | 19 kts | 236° |
| 2026-04-28 15:44 | 52.45327 | -1.73941 | 323 ft | 19 kts | 233° |
| 2026-04-28 15:44 | 52.45222 | -1.73909 | 322 ft | 18 kts | 145° |
| 2026-04-28 15:44 | 52.45119 | -1.73793 | 323 ft | 18 kts | 145° |
| 2026-04-28 15:44 | 52.45004 | -1.73709 | 323 ft | 18 kts | 146° |
| 2026-04-28 15:45 | 52.44890 | -1.73651 | 324 ft | 18 kts | 196° |
| 2026-04-28 15:45 | 52.44771 | -1.73710 | 324 ft | 18 kts | 197° |
| 2026-04-28 15:45 | 52.44658 | -1.73668 | 324 ft | 18 kts | 144° |
| 2026-04-28 15:45 | 52.44556 | -1.73551 | 323 ft | 18 kts | 149° |
| 2026-04-28 15:46 | 52.44449 | -1.73438 | 324 ft | 15 kts | 146° |
| 2026-04-28 15:46 | 52.44382 | -1.73416 | 324 ft | 10 kts | 211° |
| 2026-04-28 15:46 | 52.44338 | -1.73512 | 325 ft | 10 kts | 237° |
| 2026-04-28 15:46 | 52.44306 | -1.73599 | 323 ft | 8 kts | 255° |
| 2026-04-28 15:47 | 52.44312 | -1.73611 | 323 ft | 1 kts | 321° |
| 2026-04-28 15:47 | 52.44315 | -1.73614 | 322 ft | 0 kts | 324° |
| 2026-04-28 15:48 | 52.44317 | -1.73617 | 323 ft | 2 kts | 324° |
| 2026-04-28 15:49 | 52.44377 | -1.73685 | 323 ft | 27 kts | 326° |
| 2026-04-28 15:49 | 52.44773 | -1.74118 | 323 ft | 107 kts | 326° |
| 2026-04-28 15:49 | 52.45569 | -1.74992 | 367 ft | 162 kts | 328° |
| 2026-04-28 15:49 | 52.46512 | -1.76017 | 1031 ft | 164 kts | 331° |
| 2026-04-28 15:50 | 52.47471 | -1.77064 | 1779 ft | 166 kts | 330° |
| 2026-04-28 15:50 | 52.48435 | -1.78149 | 2456 ft | 174 kts | 330° |
| 2026-04-28 15:50 | 52.49488 | -1.79337 | 2901 ft | 196 kts | 332° |
| 2026-04-28 15:50 | 52.50731 | -1.80507 | 3378 ft | 212 kts | 351° |
| 2026-04-28 15:51 | 52.52165 | -1.80353 | 4130 ft | 209 kts | 28° |
| 2026-04-28 15:51 | 52.53204 | -1.78761 | 5017 ft | 208 kts | 63° |
| 2026-04-28 15:51 | 52.53548 | -1.76354 | 5583 ft | 233 kts | 91° |
| 2026-04-28 15:51 | 52.52975 | -1.73756 | 5965 ft | 255 kts | 122° |
| 2026-04-28 15:52 | 52.51785 | -1.71565 | 6006 ft | 257 kts | 130° |
| 2026-04-28 15:52 | 52.50504 | -1.69498 | 6025 ft | 259 kts | 132° |
| 2026-04-28 15:52 | 52.48919 | -1.67907 | 6672 ft | 273 kts | 151° |
| 2026-04-28 15:52 | 52.47177 | -1.66665 | 7772 ft | 273 kts | 151° |
| 2026-04-28 15:53 | 52.45432 | -1.65405 | 8756 ft | 275 kts | 151° |
| 2026-04-28 15:53 | 52.43671 | -1.64125 | 9708 ft | 277 kts | 151° |
| 2026-04-28 15:53 | 52.41895 | -1.62841 | 10584 ft | 283 kts | 151° |
| 2026-04-28 15:53 | 52.40017 | -1.61478 | 10966 ft | 307 kts | 151° |
| 2026-04-28 15:54 | 52.37989 | -1.60006 | 11266 ft | 331 kts | 152° |
| 2026-04-28 15:54 | 52.35840 | -1.58459 | 11824 ft | 343 kts | 152° |
| 2026-04-28 15:54 | 52.33633 | -1.56889 | 12582 ft | 348 kts | 152° |
| 2026-04-28 15:54 | 52.31404 | -1.55310 | 13328 ft | 351 kts | 152° |
| 2026-04-28 15:55 | 52.29172 | -1.53726 | 14049 ft | 356 kts | 151° |
| 2026-04-28 15:55 | 52.26891 | -1.52108 | 14752 ft | 360 kts | 151° |
| 2026-04-28 15:55 | 52.24581 | -1.50465 | 15455 ft | 365 kts | 150° |
| 2026-04-28 15:55 | 52.22246 | -1.48807 | 16150 ft | 368 kts | 150° |
| 2026-04-28 15:56 | 52.19878 | -1.47135 | 16833 ft | 372 kts | 150° |
| 2026-04-28 15:56 | 52.17489 | -1.45451 | 17476 ft | 376 kts | 150° |
| 2026-04-28 15:56 | 52.15078 | -1.43748 | 18109 ft | 380 kts | 149° |
| 2026-04-28 15:56 | 52.12639 | -1.42022 | 18732 ft | 384 kts | 149° |
| 2026-04-28 15:57 | 52.10174 | -1.40281 | 19337 ft | 388 kts | 149° |
| 2026-04-28 15:57 | 52.07686 | -1.38528 | 19933 ft | 392 kts | 149° |
| 2026-04-28 15:57 | 52.05164 | -1.36757 | 20520 ft | 396 kts | 149° |
| 2026-04-28 15:57 | 52.02620 | -1.34976 | 21060 ft | 400 kts | 148° |
| 2026-04-28 15:58 | 52.00056 | -1.33179 | 21584 ft | 404 kts | 148° |
| 2026-04-28 15:58 | 51.97466 | -1.31360 | 22107 ft | 407 kts | 148° |
| 2026-04-28 15:58 | 51.94855 | -1.29529 | 22630 ft | 410 kts | 148° |
| 2026-04-28 15:58 | 51.92230 | -1.27693 | 23108 ft | 413 kts | 148° |
| 2026-04-28 15:59 | 51.89578 | -1.25846 | 23574 ft | 416 kts | 148° |
| 2026-04-28 15:59 | 51.86904 | -1.23986 | 24023 ft | 420 kts | 148° |
| 2026-04-28 15:59 | 51.84213 | -1.22115 | 24461 ft | 423 kts | 148° |
| 2026-04-28 15:59 | 51.81498 | -1.20234 | 24894 ft | 426 kts | 148° |
| 2026-04-28 16:00 | 51.78762 | -1.18338 | 25334 ft | 429 kts | 148° |
| 2026-04-28 16:00 | 51.76014 | -1.16435 | 25782 ft | 431 kts | 148° |
| 2026-04-28 16:00 | 51.73257 | -1.14528 | 26201 ft | 433 kts | 148° |
| 2026-04-28 16:00 | 51.70475 | -1.12604 | 26600 ft | 436 kts | 148° |
| 2026-04-28 16:01 | 51.67690 | -1.10654 | 26984 ft | 436 kts | 146° |
| 2026-04-28 16:01 | 51.65090 | -1.08232 | 27357 ft | 428 kts | 137° |
| 2026-04-28 16:01 | 51.62818 | -1.05193 | 27717 ft | 421 kts | 128° |
| 2026-04-28 16:01 | 51.60928 | -1.01657 | 28060 ft | 415 kts | 119° |
| 2026-04-28 16:02 | 51.59440 | -0.97729 | 28384 ft | 410 kts | 110° |
| 2026-04-28 16:02 | 51.58314 | -0.93527 | 28704 ft | 409 kts | 107° |
| 2026-04-28 16:02 | 51.57243 | -0.89283 | 29030 ft | 412 kts | 107° |
| 2026-04-28 16:02 | 51.56155 | -0.85015 | 29341 ft | 414 kts | 107° |
| 2026-04-28 16:03 | 51.55057 | -0.80714 | 29610 ft | 417 kts | 107° |
| 2026-04-28 16:03 | 51.53951 | -0.76400 | 29900 ft | 419 kts | 107° |
| 2026-04-28 16:03 | 51.52834 | -0.72065 | 30222 ft | 420 kts | 107° |
| 2026-04-28 16:03 | 51.51729 | -0.67795 | 30601 ft | 420 kts | 108° |
| 2026-04-28 16:04 | 51.50603 | -0.63456 | 30950 ft | 420 kts | 108° |
| 2026-04-28 16:04 | 51.49478 | -0.59123 | 31270 ft | 421 kts | 108° |
| 2026-04-28 16:04 | 51.48355 | -0.54781 | 31609 ft | 422 kts | 108° |
| 2026-04-28 16:04 | 51.47228 | -0.50422 | 31949 ft | 422 kts | 108° |
| 2026-04-28 16:05 | 51.46104 | -0.46075 | 32291 ft | 423 kts | 108° |
| 2026-04-28 16:05 | 51.44973 | -0.41714 | 32640 ft | 423 kts | 108° |
| 2026-04-28 16:05 | 51.43836 | -0.37348 | 32951 ft | 424 kts | 109° |
| 2026-04-28 16:05 | 51.42697 | -0.32995 | 33283 ft | 424 kts | 109° |
| 2026-04-28 16:06 | 51.41569 | -0.28694 | 33591 ft | 425 kts | 109° |
| 2026-04-28 16:06 | 51.40428 | -0.24342 | 33906 ft | 426 kts | 109° |
| 2026-04-28 16:06 | 51.39284 | -0.19979 | 34226 ft | 426 kts | 109° |
| 2026-04-28 16:06 | 51.38150 | -0.15653 | 34546 ft | 427 kts | 109° |
| 2026-04-28 16:07 | 51.36984 | -0.11211 | 34832 ft | 428 kts | 109° |
| 2026-04-28 16:07 | 51.35848 | -0.06914 | 35101 ft | 430 kts | 110° |
| 2026-04-28 16:07 | 51.33527 | 0.01911 | 35640 ft | 431 kts | 107° |
| 2026-04-28 16:08 | 51.32714 | 0.06506 | 35866 ft | 429 kts | 100° |
| 2026-04-28 16:08 | 51.32146 | 0.11198 | 36103 ft | 430 kts | 99° |
| 2026-04-28 16:08 | 51.31578 | 0.15892 | 36350 ft | 431 kts | 99° |
| 2026-04-28 16:09 | 51.30425 | 0.25340 | 36762 ft | 434 kts | 100° |
| 2026-04-28 16:09 | 51.29843 | 0.30068 | 37049 ft | 433 kts | 100° |
| 2026-04-28 16:09 | 51.29258 | 0.34793 | 37228 ft | 433 kts | 100° |
| 2026-04-28 16:10 | 51.28093 | 0.44206 | 37266 ft | 431 kts | 100° |
| 2026-04-28 16:10 | 51.26321 | 0.58324 | 37257 ft | 433 kts | 101° |